createdAt,value
2022-10-07T02:50:34.629Z,12.90
2022-10-07T02:53:02.942Z,13.20
2022-10-07T02:55:30.800Z,13.20
2022-10-07T02:58:04.052Z,13.10
2022-10-07T03:00:33.375Z,13.00
2022-10-07T04:45:00.936Z,12.90
2022-10-07T04:47:27.530Z,10.50
2022-10-07T04:49:55.037Z,10.50
2022-10-07T04:52:21.636Z,10.40
2022-10-07T13:38:39.926Z,10.40
2022-10-07T13:41:15.692Z,26.70
2022-10-07T13:43:44.454Z,26.20
2022-10-07T13:46:12.703Z,26.90
2022-10-07T13:48:45.804Z,26.60
2022-10-07T13:51:34.013Z,25.90
2022-10-07T13:54:03.758Z,25.00
2022-10-07T13:56:35.008Z,23.70
2022-10-07T13:59:03.358Z,23.00
2022-10-07T14:01:32.209Z,22.20
2022-10-07T14:04:27.625Z,21.60
2022-10-07T14:07:14.511Z,21.10
2022-10-07T14:10:00.584Z,20.90
2022-10-07T14:12:44.673Z,20.60
2022-10-07T14:15:22.728Z,20.20
2022-10-07T14:18:04.652Z,20.00
2022-10-07T14:20:34.693Z,20.00
2022-10-07T14:23:28.211Z,20.10
2022-10-07T14:25:57.442Z,20.20
2022-10-07T14:28:24.067Z,20.40
2022-10-07T14:31:27.750Z,20.20
2022-10-07T14:34:15.705Z,19.90
2022-10-07T14:37:01.369Z,19.90
2022-10-07T14:39:42.299Z,19.90
2022-10-07T14:42:19.609Z,20.00
2022-10-07T14:44:46.630Z,19.90
2022-10-07T14:47:13.390Z,19.80
2022-10-07T14:49:43.496Z,19.50
2022-10-07T14:52:18.987Z,19.30
2022-10-07T14:59:40.069Z,19.50
2022-10-07T15:02:07.078Z,20.30
2022-10-07T15:04:33.760Z,19.90
2022-10-07T15:07:00.474Z,19.70
2022-10-07T15:09:27.308Z,20.10
2022-10-07T15:11:54.073Z,20.30
2022-10-07T15:14:20.979Z,20.50
2022-10-07T15:16:50.310Z,20.60
2022-10-07T15:19:17.079Z,20.70
2022-10-07T15:21:44.099Z,20.90
2022-10-07T15:24:10.692Z,20.70
2022-10-07T15:26:37.297Z,20.70
2022-10-07T15:29:04.051Z,20.70
2022-10-07T15:31:30.746Z,20.70
2022-10-07T15:33:57.802Z,20.40
2022-10-07T15:36:26.881Z,19.80
2022-10-07T15:38:54.275Z,19.20
2022-10-07T15:41:36.982Z,18.90
2022-10-07T15:44:07.132Z,18.40
2022-10-07T15:46:34.932Z,18.00
2022-10-07T15:49:03.411Z,17.90
2022-10-07T15:51:31.031Z,17.70
2022-10-07T15:53:58.249Z,17.50
2022-10-07T15:56:25.448Z,17.50
2022-10-07T15:58:53.073Z,17.60
2022-10-07T16:01:20.676Z,17.60
2022-10-07T16:03:48.979Z,17.50
2022-10-07T16:06:15.870Z,17.50
2022-10-07T16:08:42.891Z,17.40
2022-10-07T16:11:11.497Z,17.10
2022-10-07T16:13:40.305Z,17.00
2022-10-07T16:16:12.678Z,16.80
2022-10-07T16:18:41.634Z,16.70
2022-10-07T16:21:09.397Z,16.60
2022-10-07T16:23:37.786Z,16.60
2022-10-07T16:26:13.222Z,16.40
2022-10-07T16:29:00.594Z,16.20
2022-10-07T16:31:29.889Z,16.10
2022-10-07T16:33:56.945Z,16.00
2022-10-07T16:36:25.322Z,15.90
2022-10-07T16:38:53.401Z,15.80
2022-10-07T16:41:21.181Z,15.60
2022-10-07T16:43:47.851Z,15.50
2022-10-07T16:46:18.603Z,15.50
2022-10-07T16:48:47.439Z,15.40
2022-10-07T16:51:20.352Z,15.30
2022-10-07T16:53:48.931Z,15.40
2022-10-07T16:56:20.008Z,15.40
2022-10-07T16:58:47.026Z,15.20
2022-10-07T17:01:16.232Z,15.10
2022-10-07T17:03:46.725Z,15.20
2022-10-07T17:06:15.777Z,15.10
2022-10-07T17:08:47.443Z,14.90
2022-10-07T17:11:30.074Z,14.90
2022-10-07T17:14:23.621Z,14.70
2022-10-07T17:16:52.571Z,14.60
2022-10-07T17:19:21.974Z,14.50
2022-10-07T17:21:49.791Z,14.40
2022-10-07T17:24:18.177Z,14.30
2022-10-07T17:26:45.511Z,14.30
2022-10-07T17:29:14.733Z,14.10
2022-10-07T17:31:43.269Z,14.00
2022-10-07T17:34:13.234Z,13.90
2022-10-07T17:36:40.817Z,13.80
2022-10-07T17:39:07.602Z,13.70
2022-10-07T17:41:36.825Z,13.70
2022-10-07T17:44:08.140Z,13.60
2022-10-07T17:46:36.398Z,13.50
2022-10-07T17:49:03.637Z,13.50
2022-10-07T17:51:32.099Z,13.50
2022-10-07T17:54:00.553Z,13.40
2022-10-07T17:56:29.338Z,13.40
2022-10-07T17:58:57.104Z,13.40
2022-10-07T18:01:27.328Z,13.30
2022-10-07T18:04:02.003Z,13.20
2022-10-07T18:06:31.869Z,13.20
2022-10-07T18:08:59.048Z,13.20
2022-10-07T18:11:46.403Z,13.20
2022-10-07T18:14:31.655Z,13.30
2022-10-07T18:16:58.238Z,13.30
2022-10-07T18:19:26.467Z,13.20
2022-10-07T18:21:56.147Z,13.20
2022-10-07T18:24:29.286Z,13.10
2022-10-07T18:26:59.636Z,13.00
2022-10-07T18:29:32.076Z,12.90
2022-10-07T18:31:59.602Z,12.90
2022-10-07T18:34:26.252Z,12.90
2022-10-07T18:36:56.600Z,12.80
2022-10-07T18:39:29.329Z,12.70
2022-10-07T18:41:56.119Z,12.70
2022-10-07T18:44:22.763Z,12.70
2022-10-07T18:46:49.453Z,12.70
2022-10-07T18:49:16.085Z,12.60
2022-10-07T18:51:43.086Z,12.60
2022-10-07T18:54:10.561Z,12.60
2022-10-07T18:56:41.131Z,12.50
2022-10-07T18:59:09.481Z,12.40
2022-10-07T19:01:37.284Z,12.40
2022-10-07T19:04:05.232Z,12.40
2022-10-07T19:06:34.529Z,12.50
2022-10-07T19:09:04.281Z,12.50
2022-10-07T19:11:30.907Z,12.50
2022-10-07T19:13:59.109Z,12.50
2022-10-07T19:16:37.708Z,12.50
2022-10-07T19:19:10.132Z,12.50
2022-10-07T19:21:39.342Z,12.40
2022-10-07T19:24:06.934Z,12.40
2022-10-07T19:26:43.752Z,12.40
2022-10-07T19:29:11.920Z,12.40
2022-10-07T19:31:41.477Z,12.30
2022-10-07T19:34:13.865Z,12.30
2022-10-07T19:36:42.309Z,12.30
2022-10-07T19:39:10.351Z,12.20
2022-10-07T19:41:37.507Z,12.30
2022-10-07T19:44:04.804Z,12.20
2022-10-07T19:46:33.298Z,12.20
2022-10-07T19:49:01.746Z,12.20
2022-10-07T19:51:30.341Z,12.20
2022-10-07T19:53:58.478Z,12.10
2022-10-07T19:56:28.643Z,12.10
2022-10-07T19:58:57.843Z,12.00
2022-10-07T20:01:31.804Z,12.00
2022-10-07T20:04:04.418Z,11.90
2022-10-07T20:06:31.205Z,11.90
2022-10-07T20:08:58.653Z,11.90
2022-10-07T20:11:27.658Z,11.90
2022-10-07T20:13:54.366Z,11.90
2022-10-07T20:16:24.170Z,11.80
2022-10-07T20:18:57.125Z,11.70
2022-10-07T20:21:24.077Z,11.70
2022-10-07T20:23:53.200Z,11.60
2022-10-07T20:26:25.767Z,11.60
2022-10-07T20:28:54.901Z,11.50
2022-10-07T20:31:24.275Z,11.40
2022-10-07T20:33:53.181Z,11.40
2022-10-07T20:36:23.488Z,11.40
2022-10-07T20:39:24.895Z,11.40
2022-10-07T20:42:11.436Z,11.30
2022-10-07T20:44:38.798Z,11.40
2022-10-07T20:47:07.620Z,11.40
2022-10-07T20:49:37.093Z,11.40
2022-10-07T20:52:06.913Z,11.40
2022-10-07T20:54:33.859Z,11.40
2022-10-07T20:57:00.920Z,11.40
2022-10-07T20:59:30.067Z,11.50
2022-10-07T21:01:57.809Z,11.40
2022-10-07T21:04:26.910Z,11.40
2022-10-07T21:06:54.397Z,11.40
2022-10-07T21:09:20.997Z,11.40
2022-10-07T21:11:48.206Z,11.40
2022-10-07T21:14:16.993Z,11.40
2022-10-07T21:16:44.746Z,11.40
2022-10-07T21:19:11.516Z,11.40
2022-10-07T21:21:39.088Z,11.40
2022-10-07T21:24:07.079Z,11.30
2022-10-07T21:26:35.224Z,11.40
2022-10-07T21:29:03.585Z,11.40
2022-10-07T21:31:31.335Z,11.30
2022-10-07T21:34:01.471Z,11.30
2022-10-07T21:36:28.339Z,11.30
2022-10-07T21:38:58.742Z,11.30
2022-10-07T21:41:38.509Z,11.30
2022-10-07T21:44:07.191Z,11.30
2022-10-07T21:46:36.548Z,11.30
2022-10-07T21:49:03.740Z,11.30
2022-10-07T21:51:32.187Z,11.30
2022-10-07T21:53:58.997Z,11.20
2022-10-07T21:56:28.224Z,11.20
2022-10-07T21:58:55.172Z,11.20
2022-10-07T22:01:23.878Z,11.20
2022-10-07T22:04:15.791Z,11.20
2022-10-07T22:07:01.290Z,11.10
2022-10-07T22:09:27.916Z,11.10
2022-10-07T22:11:54.574Z,11.10
2022-10-07T22:14:21.246Z,11.10
2022-10-07T22:16:48.392Z,11.10
2022-10-07T22:19:16.531Z,11.00
2022-10-07T22:21:43.553Z,11.00
2022-10-07T22:24:10.262Z,10.90
2022-10-07T22:26:40.411Z,10.90
2022-10-07T22:29:09.510Z,10.90
2022-10-07T22:31:37.124Z,10.90
2022-10-07T22:34:04.342Z,10.90
2022-10-07T22:36:31.008Z,10.80
2022-10-07T22:38:59.211Z,10.80
2022-10-07T22:41:27.054Z,10.80
2022-10-07T22:43:54.009Z,10.70
2022-10-07T22:46:26.092Z,10.70
2022-10-07T22:48:57.761Z,10.70
2022-10-07T22:51:28.207Z,10.70
2022-10-07T22:53:56.312Z,10.60
2022-10-07T22:56:24.585Z,10.50
2022-10-07T22:58:54.305Z,10.50
2022-10-07T23:01:21.657Z,10.50
2022-10-07T23:03:48.478Z,10.50
2022-10-07T23:06:18.087Z,10.40
2022-10-07T23:08:45.930Z,10.40
2022-10-07T23:11:30.970Z,10.40
2022-10-07T23:13:57.729Z,10.30
2022-10-07T23:16:29.385Z,10.20
2022-10-07T23:18:56.765Z,10.20
2022-10-07T23:21:25.526Z,10.10
2022-10-07T23:24:01.739Z,10.00
2022-10-07T23:26:31.656Z,10.00
2022-10-07T23:28:59.950Z,10.00
2022-10-07T23:31:28.320Z,9.90
2022-10-07T23:33:56.468Z,9.90
2022-10-07T23:36:23.738Z,9.90
2022-10-07T23:38:50.986Z,9.90
2022-10-07T23:41:20.794Z,9.90
2022-10-07T23:43:51.837Z,9.90
2022-10-07T23:46:19.782Z,9.90
2022-10-07T23:48:46.981Z,9.80
2022-10-07T23:51:16.658Z,9.80
2022-10-07T23:53:43.585Z,9.80
2022-10-07T23:56:10.407Z,9.70
2022-10-07T23:58:37.606Z,9.70
